sensor_id;sensor_type;location;lat;lon;timestamp;P1;durP1;ratioP1;P2;durP2;ratioP2
39190;SDS011;24916;51.676;6.614;2022-07-21T00:01:12;11.10;;;7.60;;
39190;SDS011;24916;51.676;6.614;2022-07-21T00:03:38;10.93;;;7.20;;
39190;SDS011;24916;51.676;6.614;2022-07-21T00:06:03;9.73;;;7.43;;
39190;SDS011;24916;51.676;6.614;2022-07-21T00:08:29;10.55;;;7.50;;
39190;SDS011;24916;51.676;6.614;2022-07-21T00:10:54;11.13;;;8.00;;
39190;SDS011;24916;51.676;6.614;2022-07-21T00:13:19;12.40;;;8.45;;
39190;SDS011;24916;51.676;6.614;2022-07-21T00:15:45;11.93;;;8.43;;
39190;SDS011;24916;51.676;6.614;2022-07-21T00:18:10;14.43;;;9.13;;
39190;SDS011;24916;51.676;6.614;2022-07-21T00:20:35;13.13;;;9.20;;
39190;SDS011;24916;51.676;6.614;2022-07-21T00:23:01;11.00;;;8.43;;
39190;SDS011;24916;51.676;6.614;2022-07-21T00:25:26;13.73;;;8.77;;
39190;SDS011;24916;51.676;6.614;2022-07-21T00:27:51;13.38;;;8.32;;
39190;SDS011;24916;51.676;6.614;2022-07-21T00:30:16;10.30;;;7.57;;
39190;SDS011;24916;51.676;6.614;2022-07-21T00:32:42;10.73;;;8.00;;
39190;SDS011;24916;51.676;6.614;2022-07-21T00:35:09;13.00;;;7.88;;
39190;SDS011;24916;51.676;6.614;2022-07-21T00:37:35;10.98;;;7.82;;
39190;SDS011;24916;51.676;6.614;2022-07-21T00:40:00;12.38;;;8.35;;
39190;SDS011;24916;51.676;6.614;2022-07-21T00:42:27;9.75;;;7.07;;
39190;SDS011;24916;51.676;6.614;2022-07-21T00:44:53;10.15;;;7.32;;
39190;SDS011;24916;51.676;6.614;2022-07-21T00:47:19;9.35;;;6.72;;
39190;SDS011;24916;51.676;6.614;2022-07-21T00:49:45;9.30;;;6.47;;
39190;SDS011;24916;51.676;6.614;2022-07-21T00:52:10;9.52;;;6.13;;
39190;SDS011;24916;51.676;6.614;2022-07-21T00:54:35;8.25;;;6.43;;
39190;SDS011;24916;51.676;6.614;2022-07-21T00:57:01;10.15;;;6.55;;
39190;SDS011;24916;51.676;6.614;2022-07-21T00:59:27;9.10;;;6.32;;
39190;SDS011;24916;51.676;6.614;2022-07-21T01:01:53;9.60;;;6.95;;
39190;SDS011;24916;51.676;6.614;2022-07-21T01:04:18;8.50;;;6.63;;
39190;SDS011;24916;51.676;6.614;2022-07-21T01:06:44;9.07;;;6.57;;
39190;SDS011;24916;51.676;6.614;2022-07-21T01:09:09;11.93;;;7.43;;
39190;SDS011;24916;51.676;6.614;2022-07-21T01:11:36;12.82;;;7.93;;
39190;SDS011;24916;51.676;6.614;2022-07-21T01:14:01;12.52;;;8.27;;
39190;SDS011;24916;51.676;6.614;2022-07-21T01:16:26;10.63;;;7.57;;
39190;SDS011;24916;51.676;6.614;2022-07-21T01:18:52;11.23;;;7.55;;
39190;SDS011;24916;51.676;6.614;2022-07-21T01:21:27;11.30;;;7.88;;
39190;SDS011;24916;51.676;6.614;2022-07-21T01:23:52;11.63;;;8.32;;
39190;SDS011;24916;51.676;6.614;2022-07-21T01:26:18;10.13;;;7.75;;
39190;SDS011;24916;51.676;6.614;2022-07-21T01:28:43;10.20;;;7.60;;
39190;SDS011;24916;51.676;6.614;2022-07-21T01:31:08;10.13;;;7.63;;
39190;SDS011;24916;51.676;6.614;2022-07-21T01:33:33;12.90;;;8.83;;
39190;SDS011;24916;51.676;6.614;2022-07-21T01:35:59;11.88;;;8.07;;
39190;SDS011;24916;51.676;6.614;2022-07-21T01:38:24;15.20;;;8.95;;
39190;SDS011;24916;51.676;6.614;2022-07-21T01:41:08;12.40;;;8.48;;
39190;SDS011;24916;51.676;6.614;2022-07-21T01:43:52;11.02;;;8.48;;
39190;SDS011;24916;51.676;6.614;2022-07-21T01:46:17;11.43;;;7.97;;
39190;SDS011;24916;51.676;6.614;2022-07-21T01:48:42;10.77;;;7.93;;
39190;SDS011;24916;51.676;6.614;2022-07-21T01:51:08;11.63;;;8.63;;
39190;SDS011;24916;51.676;6.614;2022-07-21T01:53:34;13.65;;;8.13;;
39190;SDS011;24916;51.676;6.614;2022-07-21T01:55:59;12.90;;;8.70;;
39190;SDS011;24916;51.676;6.614;2022-07-21T01:58:24;11.15;;;8.25;;
39190;SDS011;24916;51.676;6.614;2022-07-21T02:00:49;9.87;;;8.37;;
39190;SDS011;24916;51.676;6.614;2022-07-21T02:03:15;11.03;;;7.97;;
39190;SDS011;24916;51.676;6.614;2022-07-21T02:05:40;9.90;;;7.67;;
39190;SDS011;24916;51.676;6.614;2022-07-21T02:08:05;12.00;;;8.90;;
39190;SDS011;24916;51.676;6.614;2022-07-21T02:10:30;11.73;;;8.13;;
39190;SDS011;24916;51.676;6.614;2022-07-21T02:12:56;12.27;;;8.23;;
39190;SDS011;24916;51.676;6.614;2022-07-21T02:15:21;14.20;;;8.90;;
39190;SDS011;24916;51.676;6.614;2022-07-21T02:17:46;14.27;;;8.70;;
39190;SDS011;24916;51.676;6.614;2022-07-21T02:20:11;12.07;;;8.67;;
39190;SDS011;24916;51.676;6.614;2022-07-21T02:22:37;12.60;;;8.50;;
39190;SDS011;24916;51.676;6.614;2022-07-21T02:25:02;15.17;;;8.93;;
39190;SDS011;24916;51.676;6.614;2022-07-21T02:27:27;12.18;;;8.95;;
39190;SDS011;24916;51.676;6.614;2022-07-21T02:29:53;12.17;;;8.30;;
39190;SDS011;24916;51.676;6.614;2022-07-21T02:32:18;13.13;;;8.63;;
39190;SDS011;24916;51.676;6.614;2022-07-21T02:34:43;14.00;;;8.73;;
39190;SDS011;24916;51.676;6.614;2022-07-21T02:37:08;12.90;;;9.45;;
39190;SDS011;24916;51.676;6.614;2022-07-21T02:39:34;12.90;;;9.60;;
39190;SDS011;24916;51.676;6.614;2022-07-21T02:41:59;15.03;;;9.50;;
39190;SDS011;24916;51.676;6.614;2022-07-21T02:44:24;16.02;;;10.93;;
39190;SDS011;24916;51.676;6.614;2022-07-21T02:46:49;15.55;;;10.38;;
39190;SDS011;24916;51.676;6.614;2022-07-21T02:49:15;14.90;;;11.00;;
39190;SDS011;24916;51.676;6.614;2022-07-21T02:51:40;17.30;;;10.38;;
39190;SDS011;24916;51.676;6.614;2022-07-21T02:54:05;16.85;;;11.23;;
39190;SDS011;24916;51.676;6.614;2022-07-21T02:56:30;14.13;;;10.57;;
39190;SDS011;24916;51.676;6.614;2022-07-21T02:58:56;15.83;;;11.20;;
39190;SDS011;24916;51.676;6.614;2022-07-21T03:01:21;16.17;;;10.80;;
39190;SDS011;24916;51.676;6.614;2022-07-21T03:03:46;15.07;;;10.17;;
39190;SDS011;24916;51.676;6.614;2022-07-21T03:06:11;16.57;;;11.43;;
39190;SDS011;24916;51.676;6.614;2022-07-21T03:08:37;17.13;;;11.03;;
39190;SDS011;24916;51.676;6.614;2022-07-21T03:11:02;17.45;;;10.77;;
39190;SDS011;24916;51.676;6.614;2022-07-21T03:13:28;17.67;;;10.57;;
39190;SDS011;24916;51.676;6.614;2022-07-21T03:15:54;18.83;;;10.82;;
39190;SDS011;24916;51.676;6.614;2022-07-21T03:18:19;17.48;;;11.10;;
39190;SDS011;24916;51.676;6.614;2022-07-21T03:20:45;14.97;;;11.07;;
39190;SDS011;24916;51.676;6.614;2022-07-21T03:23:10;14.85;;;10.52;;
39190;SDS011;24916;51.676;6.614;2022-07-21T03:25:36;18.10;;;12.07;;
39190;SDS011;24916;51.676;6.614;2022-07-21T03:28:01;16.13;;;11.48;;
39190;SDS011;24916;51.676;6.614;2022-07-21T03:30:27;17.85;;;11.75;;
39190;SDS011;24916;51.676;6.614;2022-07-21T03:32:53;17.17;;;11.95;;
39190;SDS011;24916;51.676;6.614;2022-07-21T03:35:19;15.82;;;12.13;;
39190;SDS011;24916;51.676;6.614;2022-07-21T03:37:45;18.95;;;12.20;;
39190;SDS011;24916;51.676;6.614;2022-07-21T03:40:12;17.73;;;12.18;;
39190;SDS011;24916;51.676;6.614;2022-07-21T03:42:37;19.05;;;12.40;;
39190;SDS011;24916;51.676;6.614;2022-07-21T03:45:03;21.77;;;13.25;;
39190;SDS011;24916;51.676;6.614;2022-07-21T03:47:28;19.10;;;12.77;;
39190;SDS011;24916;51.676;6.614;2022-07-21T03:49:53;19.25;;;12.60;;
39190;SDS011;24916;51.676;6.614;2022-07-21T03:52:18;17.67;;;12.20;;
39190;SDS011;24916;51.676;6.614;2022-07-21T03:54:44;17.27;;;12.13;;
39190;SDS011;24916;51.676;6.614;2022-07-21T03:57:09;18.90;;;12.30;;
39190;SDS011;24916;51.676;6.614;2022-07-21T03:59:34;18.17;;;12.30;;
39190;SDS011;24916;51.676;6.614;2022-07-21T04:01:59;18.43;;;11.47;;
39190;SDS011;24916;51.676;6.614;2022-07-21T04:04:25;19.50;;;12.33;;
39190;SDS011;24916;51.676;6.614;2022-07-21T04:06:50;17.87;;;12.20;;
39190;SDS011;24916;51.676;6.614;2022-07-21T04:09:15;16.80;;;12.07;;
39190;SDS011;24916;51.676;6.614;2022-07-21T04:11:42;20.00;;;12.73;;
39190;SDS011;24916;51.676;6.614;2022-07-21T04:14:07;17.55;;;12.48;;
39190;SDS011;24916;51.676;6.614;2022-07-21T04:16:32;18.02;;;11.77;;
39190;SDS011;24916;51.676;6.614;2022-07-21T04:18:58;20.67;;;12.50;;
39190;SDS011;24916;51.676;6.614;2022-07-21T04:21:23;17.83;;;12.55;;
39190;SDS011;24916;51.676;6.614;2022-07-21T04:23:48;18.67;;;12.63;;
39190;SDS011;24916;51.676;6.614;2022-07-21T04:26:13;21.57;;;12.90;;
39190;SDS011;24916;51.676;6.614;2022-07-21T04:28:39;18.55;;;12.30;;
39190;SDS011;24916;51.676;6.614;2022-07-21T04:31:04;18.08;;;12.27;;
39190;SDS011;24916;51.676;6.614;2022-07-21T04:33:29;19.00;;;11.57;;
39190;SDS011;24916;51.676;6.614;2022-07-21T04:35:54;18.70;;;12.57;;
39190;SDS011;24916;51.676;6.614;2022-07-21T04:38:20;17.20;;;11.37;;
39190;SDS011;24916;51.676;6.614;2022-07-21T04:40:45;17.43;;;11.23;;
39190;SDS011;24916;51.676;6.614;2022-07-21T04:43:10;18.73;;;11.88;;
39190;SDS011;24916;51.676;6.614;2022-07-21T04:45:36;17.88;;;11.38;;
39190;SDS011;24916;51.676;6.614;2022-07-21T04:48:01;17.30;;;11.00;;
39190;SDS011;24916;51.676;6.614;2022-07-21T04:50:27;17.90;;;11.68;;
39190;SDS011;24916;51.676;6.614;2022-07-21T04:52:53;17.15;;;11.85;;
39190;SDS011;24916;51.676;6.614;2022-07-21T04:55:18;19.05;;;12.38;;
39190;SDS011;24916;51.676;6.614;2022-07-21T04:57:45;18.40;;;11.63;;
39190;SDS011;24916;51.676;6.614;2022-07-21T05:00:11;17.50;;;11.52;;
39190;SDS011;24916;51.676;6.614;2022-07-21T05:02:37;18.33;;;12.00;;
39190;SDS011;24916;51.676;6.614;2022-07-21T05:05:04;18.65;;;11.80;;
39190;SDS011;24916;51.676;6.614;2022-07-21T05:07:29;17.63;;;11.45;;
39190;SDS011;24916;51.676;6.614;2022-07-21T05:09:54;18.02;;;11.73;;
39190;SDS011;24916;51.676;6.614;2022-07-21T05:12:21;19.60;;;12.82;;
39190;SDS011;24916;51.676;6.614;2022-07-21T05:14:46;16.67;;;11.63;;
39190;SDS011;24916;51.676;6.614;2022-07-21T05:17:12;16.70;;;12.07;;
39190;SDS011;24916;51.676;6.614;2022-07-21T05:19:37;16.83;;;11.23;;
39190;SDS011;24916;51.676;6.614;2022-07-21T05:22:02;16.17;;;11.90;;
39190;SDS011;24916;51.676;6.614;2022-07-21T05:24:27;15.68;;;11.45;;
39190;SDS011;24916;51.676;6.614;2022-07-21T05:26:53;16.53;;;11.70;;
39190;SDS011;24916;51.676;6.614;2022-07-21T05:29:18;18.10;;;11.70;;
39190;SDS011;24916;51.676;6.614;2022-07-21T05:31:43;17.63;;;11.43;;
39190;SDS011;24916;51.676;6.614;2022-07-21T05:34:09;18.83;;;12.00;;
39190;SDS011;24916;51.676;6.614;2022-07-21T05:36:35;17.88;;;13.38;;
39190;SDS011;24916;51.676;6.614;2022-07-21T05:39:00;20.57;;;12.40;;
39190;SDS011;24916;51.676;6.614;2022-07-21T05:41:25;18.13;;;13.13;;
39190;SDS011;24916;51.676;6.614;2022-07-21T05:43:50;19.40;;;12.50;;
39190;SDS011;24916;51.676;6.614;2022-07-21T05:46:16;17.70;;;12.70;;
39190;SDS011;24916;51.676;6.614;2022-07-21T05:48:41;19.88;;;12.85;;
39190;SDS011;24916;51.676;6.614;2022-07-21T05:51:06;19.10;;;13.07;;
39190;SDS011;24916;51.676;6.614;2022-07-21T05:53:32;20.58;;;12.93;;
39190;SDS011;24916;51.676;6.614;2022-07-21T05:55:57;17.93;;;12.93;;
39190;SDS011;24916;51.676;6.614;2022-07-21T05:58:22;20.95;;;13.38;;
39190;SDS011;24916;51.676;6.614;2022-07-21T06:00:49;20.63;;;12.82;;
39190;SDS011;24916;51.676;6.614;2022-07-21T06:03:33;20.75;;;12.88;;
39190;SDS011;24916;51.676;6.614;2022-07-21T06:05:58;20.92;;;13.18;;
39190;SDS011;24916;51.676;6.614;2022-07-21T06:08:23;19.67;;;13.53;;
39190;SDS011;24916;51.676;6.614;2022-07-21T06:10:48;18.25;;;13.90;;
39190;SDS011;24916;51.676;6.614;2022-07-21T06:13:14;20.37;;;13.67;;
39190;SDS011;24916;51.676;6.614;2022-07-21T06:15:39;20.27;;;13.57;;
39190;SDS011;24916;51.676;6.614;2022-07-21T06:18:04;22.00;;;14.07;;
39190;SDS011;24916;51.676;6.614;2022-07-21T06:20:29;23.37;;;13.50;;
39190;SDS011;24916;51.676;6.614;2022-07-21T06:22:55;20.85;;;13.98;;
39190;SDS011;24916;51.676;6.614;2022-07-21T06:25:20;23.65;;;13.48;;
39190;SDS011;24916;51.676;6.614;2022-07-21T06:27:45;22.65;;;14.48;;
39190;SDS011;24916;51.676;6.614;2022-07-21T06:30:11;21.50;;;14.30;;
39190;SDS011;24916;51.676;6.614;2022-07-21T06:32:36;23.98;;;14.85;;
39190;SDS011;24916;51.676;6.614;2022-07-21T06:35:01;20.70;;;15.55;;
39190;SDS011;24916;51.676;6.614;2022-07-21T06:37:27;24.13;;;16.98;;
39190;SDS011;24916;51.676;6.614;2022-07-21T06:39:52;26.17;;;16.08;;
39190;SDS011;24916;51.676;6.614;2022-07-21T06:42:17;27.75;;;15.85;;
39190;SDS011;24916;51.676;6.614;2022-07-21T06:44:43;24.27;;;15.00;;
39190;SDS011;24916;51.676;6.614;2022-07-21T06:47:08;25.73;;;14.85;;
39190;SDS011;24916;51.676;6.614;2022-07-21T06:49:33;24.23;;;14.30;;
39190;SDS011;24916;51.676;6.614;2022-07-21T06:51:59;19.73;;;13.35;;
39190;SDS011;24916;51.676;6.614;2022-07-21T06:54:24;19.80;;;13.98;;
39190;SDS011;24916;51.676;6.614;2022-07-21T06:56:49;20.83;;;13.52;;
39190;SDS011;24916;51.676;6.614;2022-07-21T06:59:15;18.15;;;13.05;;
39190;SDS011;24916;51.676;6.614;2022-07-21T07:01:40;24.08;;;14.15;;
39190;SDS011;24916;51.676;6.614;2022-07-21T07:04:05;20.83;;;12.73;;
39190;SDS011;24916;51.676;6.614;2022-07-21T07:06:31;18.40;;;12.07;;
39190;SDS011;24916;51.676;6.614;2022-07-21T07:08:56;19.08;;;12.18;;
39190;SDS011;24916;51.676;6.614;2022-07-21T07:11:22;18.37;;;12.17;;
39190;SDS011;24916;51.676;6.614;2022-07-21T07:13:47;13.40;;;10.73;;
39190;SDS011;24916;51.676;6.614;2022-07-21T07:16:12;15.90;;;11.57;;
39190;SDS011;24916;51.676;6.614;2022-07-21T07:18:38;14.50;;;11.13;;
39190;SDS011;24916;51.676;6.614;2022-07-21T07:21:03;15.38;;;10.00;;
39190;SDS011;24916;51.676;6.614;2022-07-21T07:23:28;13.52;;;9.00;;
39190;SDS011;24916;51.676;6.614;2022-07-21T07:25:53;14.00;;;10.20;;
39190;SDS011;24916;51.676;6.614;2022-07-21T07:28:19;17.50;;;11.03;;
39190;SDS011;24916;51.676;6.614;2022-07-21T07:30:44;18.23;;;12.15;;
39190;SDS011;24916;51.676;6.614;2022-07-21T07:33:09;13.95;;;10.00;;
39190;SDS011;24916;51.676;6.614;2022-07-21T07:35:34;12.57;;;9.57;;
39190;SDS011;24916;51.676;6.614;2022-07-21T07:38:00;15.37;;;10.03;;
39190;SDS011;24916;51.676;6.614;2022-07-21T07:40:25;14.50;;;9.35;;
39190;SDS011;24916;51.676;6.614;2022-07-21T07:42:50;12.80;;;9.17;;
39190;SDS011;24916;51.676;6.614;2022-07-21T07:45:15;12.97;;;8.73;;
39190;SDS011;24916;51.676;6.614;2022-07-21T07:47:41;15.73;;;9.30;;
39190;SDS011;24916;51.676;6.614;2022-07-21T07:50:07;12.65;;;8.65;;
39190;SDS011;24916;51.676;6.614;2022-07-21T07:52:33;12.95;;;8.82;;
39190;SDS011;24916;51.676;6.614;2022-07-21T07:54:59;11.70;;;8.45;;
39190;SDS011;24916;51.676;6.614;2022-07-21T07:57:24;10.43;;;8.25;;
39190;SDS011;24916;51.676;6.614;2022-07-21T07:59:49;20.00;;;12.97;;
39190;SDS011;24916;51.676;6.614;2022-07-21T08:02:15;12.87;;;8.50;;
39190;SDS011;24916;51.676;6.614;2022-07-21T08:04:40;10.75;;;8.10;;
39190;SDS011;24916;51.676;6.614;2022-07-21T08:07:08;11.75;;;8.00;;
39190;SDS011;24916;51.676;6.614;2022-07-21T08:09:33;12.40;;;8.65;;
39190;SDS011;24916;51.676;6.614;2022-07-21T08:11:58;12.45;;;7.68;;
39190;SDS011;24916;51.676;6.614;2022-07-21T08:14:24;11.15;;;7.78;;
39190;SDS011;24916;51.676;6.614;2022-07-21T08:16:49;12.80;;;8.07;;
39190;SDS011;24916;51.676;6.614;2022-07-21T08:19:14;12.43;;;8.23;;
39190;SDS011;24916;51.676;6.614;2022-07-21T08:21:39;13.43;;;8.20;;
39190;SDS011;24916;51.676;6.614;2022-07-21T08:24:05;11.47;;;7.93;;
39190;SDS011;24916;51.676;6.614;2022-07-21T08:26:30;10.63;;;7.43;;
39190;SDS011;24916;51.676;6.614;2022-07-21T08:28:56;10.20;;;7.80;;
39190;SDS011;24916;51.676;6.614;2022-07-21T08:31:21;11.23;;;6.72;;
39190;SDS011;24916;51.676;6.614;2022-07-21T08:33:47;12.05;;;7.18;;
39190;SDS011;24916;51.676;6.614;2022-07-21T08:36:12;10.65;;;6.95;;
39190;SDS011;24916;51.676;6.614;2022-07-21T08:38:38;10.63;;;7.03;;
39190;SDS011;24916;51.676;6.614;2022-07-21T08:41:03;12.30;;;6.90;;
39190;SDS011;24916;51.676;6.614;2022-07-21T08:43:28;9.13;;;6.97;;
39190;SDS011;24916;51.676;6.614;2022-07-21T08:45:54;14.10;;;6.73;;
39190;SDS011;24916;51.676;6.614;2022-07-21T08:48:22;9.43;;;5.60;;
39190;SDS011;24916;51.676;6.614;2022-07-21T08:50:48;10.25;;;5.90;;
39190;SDS011;24916;51.676;6.614;2022-07-21T08:53:13;16.58;;;6.32;;
39190;SDS011;24916;51.676;6.614;2022-07-21T08:55:38;9.30;;;5.20;;
39190;SDS011;24916;51.676;6.614;2022-07-21T08:58:10;12.60;;;9.45;;
39190;SDS011;24916;51.676;6.614;2022-07-21T09:00:37;11.40;;;6.45;;
39190;SDS011;24916;51.676;6.614;2022-07-21T09:03:14;10.73;;;6.55;;
39190;SDS011;24916;51.676;6.614;2022-07-21T09:05:40;12.20;;;5.70;;
39190;SDS011;24916;51.676;6.614;2022-07-21T09:08:05;9.07;;;5.45;;
39190;SDS011;24916;51.676;6.614;2022-07-21T09:10:31;10.38;;;4.93;;
39190;SDS011;24916;51.676;6.614;2022-07-21T09:12:58;10.23;;;5.40;;
39190;SDS011;24916;51.676;6.614;2022-07-21T09:15:25;8.63;;;5.20;;
39190;SDS011;24916;51.676;6.614;2022-07-21T09:18:07;8.45;;;5.30;;
39190;SDS011;24916;51.676;6.614;2022-07-21T09:20:33;11.18;;;5.70;;
39190;SDS011;24916;51.676;6.614;2022-07-21T09:23:17;7.82;;;5.60;;
39190;SDS011;24916;51.676;6.614;2022-07-21T09:25:44;11.80;;;5.70;;
39190;SDS011;24916;51.676;6.614;2022-07-21T09:33:19;10.02;;;6.72;;
39190;SDS011;24916;51.676;6.614;2022-07-21T09:38:23;9.05;;;6.35;;
39190;SDS011;24916;51.676;6.614;2022-07-21T09:40:49;15.48;;;6.82;;
39190;SDS011;24916;51.676;6.614;2022-07-21T09:46:04;12.65;;;7.70;;
39190;SDS011;24916;51.676;6.614;2022-07-21T09:48:36;12.10;;;8.48;;
39190;SDS011;24916;51.676;6.614;2022-07-21T09:53:28;10.50;;;6.90;;
39190;SDS011;24916;51.676;6.614;2022-07-21T09:56:12;11.23;;;8.73;;
39190;SDS011;24916;51.676;6.614;2022-07-21T09:58:37;10.52;;;8.20;;
39190;SDS011;24916;51.676;6.614;2022-07-21T10:01:02;12.48;;;8.50;;
39190;SDS011;24916;51.676;6.614;2022-07-21T10:03:27;10.45;;;8.18;;
39190;SDS011;24916;51.676;6.614;2022-07-21T10:05:53;11.77;;;7.95;;
39190;SDS011;24916;51.676;6.614;2022-07-21T10:08:19;14.13;;;8.70;;
39190;SDS011;24916;51.676;6.614;2022-07-21T10:10:44;13.63;;;8.83;;
39190;SDS011;24916;51.676;6.614;2022-07-21T10:13:09;15.20;;;9.20;;
39190;SDS011;24916;51.676;6.614;2022-07-21T10:15:34;16.48;;;12.15;;
39190;SDS011;24916;51.676;6.614;2022-07-21T10:18:00;12.35;;;9.15;;
39190;SDS011;24916;51.676;6.614;2022-07-21T10:20:27;14.18;;;7.95;;
39190;SDS011;24916;51.676;6.614;2022-07-21T10:25:23;12.45;;;8.95;;
39190;SDS011;24916;51.676;6.614;2022-07-21T10:33:03;13.70;;;8.60;;
39190;SDS011;24916;51.676;6.614;2022-07-21T10:35:29;13.20;;;10.25;;
39190;SDS011;24916;51.676;6.614;2022-07-21T10:37:55;13.07;;;9.63;;
39190;SDS011;24916;51.676;6.614;2022-07-21T10:45:39;12.45;;;8.50;;
39190;SDS011;24916;51.676;6.614;2022-07-21T10:48:09;14.45;;;7.20;;
39190;SDS011;24916;51.676;6.614;2022-07-21T10:50:50;11.27;;;7.28;;
39190;SDS011;24916;51.676;6.614;2022-07-21T10:53:17;13.05;;;7.13;;
39190;SDS011;24916;51.676;6.614;2022-07-21T10:55:46;10.20;;;6.85;;
39190;SDS011;24916;51.676;6.614;2022-07-21T10:58:13;13.23;;;9.27;;
39190;SDS011;24916;51.676;6.614;2022-07-21T11:00:43;12.23;;;8.90;;
39190;SDS011;24916;51.676;6.614;2022-07-21T11:03:16;13.00;;;8.82;;
39190;SDS011;24916;51.676;6.614;2022-07-21T11:08:36;11.38;;;6.90;;
39190;SDS011;24916;51.676;6.614;2022-07-21T11:13:56;10.82;;;7.40;;
39190;SDS011;24916;51.676;6.614;2022-07-21T11:16:17;15.32;;;10.10;;
39190;SDS011;24916;51.676;6.614;2022-07-21T11:18:43;17.90;;;11.90;;
39190;SDS011;24916;51.676;6.614;2022-07-21T11:21:12;15.07;;;9.40;;
39190;SDS011;24916;51.676;6.614;2022-07-21T11:23:39;9.43;;;7.00;;
39190;SDS011;24916;51.676;6.614;2022-07-21T11:26:05;11.27;;;6.13;;
39190;SDS011;24916;51.676;6.614;2022-07-21T11:28:30;9.68;;;6.03;;
39190;SDS011;24916;51.676;6.614;2022-07-21T11:31:09;7.95;;;5.28;;
39190;SDS011;24916;51.676;6.614;2022-07-21T11:33:38;8.73;;;5.18;;
39190;SDS011;24916;51.676;6.614;2022-07-21T11:36:03;11.32;;;5.18;;
39190;SDS011;24916;51.676;6.614;2022-07-21T11:38:29;8.30;;;5.55;;
39190;SDS011;24916;51.676;6.614;2022-07-21T11:41:11;7.65;;;4.72;;
39190;SDS011;24916;51.676;6.614;2022-07-21T11:43:40;10.82;;;6.47;;
39190;SDS011;24916;51.676;6.614;2022-07-21T11:46:06;8.65;;;5.22;;
39190;SDS011;24916;51.676;6.614;2022-07-21T11:48:31;7.57;;;4.80;;
39190;SDS011;24916;51.676;6.614;2022-07-21T11:51:00;8.07;;;4.78;;
39190;SDS011;24916;51.676;6.614;2022-07-21T11:53:25;6.68;;;5.15;;
39190;SDS011;24916;51.676;6.614;2022-07-21T11:55:51;5.40;;;4.03;;
39190;SDS011;24916;51.676;6.614;2022-07-21T11:58:17;6.50;;;3.90;;
39190;SDS011;24916;51.676;6.614;2022-07-21T12:00:42;8.63;;;4.35;;
39190;SDS011;24916;51.676;6.614;2022-07-21T12:03:08;6.32;;;4.55;;
39190;SDS011;24916;51.676;6.614;2022-07-21T12:05:34;7.40;;;4.57;;
39190;SDS011;24916;51.676;6.614;2022-07-21T12:07:59;6.60;;;4.65;;
39190;SDS011;24916;51.676;6.614;2022-07-21T12:10:28;7.63;;;4.45;;
39190;SDS011;24916;51.676;6.614;2022-07-21T12:12:58;6.13;;;4.35;;
39190;SDS011;24916;51.676;6.614;2022-07-21T12:15:24;6.70;;;4.50;;
39190;SDS011;24916;51.676;6.614;2022-07-21T12:18:04;7.32;;;4.70;;
39190;SDS011;24916;51.676;6.614;2022-07-21T12:20:30;8.55;;;5.60;;
39190;SDS011;24916;51.676;6.614;2022-07-21T12:22:57;8.68;;;5.43;;
39190;SDS011;24916;51.676;6.614;2022-07-21T12:25:36;12.13;;;4.72;;
39190;SDS011;24916;51.676;6.614;2022-07-21T12:28:02;9.20;;;5.03;;
39190;SDS011;24916;51.676;6.614;2022-07-21T12:30:29;9.80;;;4.63;;
39190;SDS011;24916;51.676;6.614;2022-07-21T12:32:54;6.88;;;4.70;;
39190;SDS011;24916;51.676;6.614;2022-07-21T12:35:28;9.18;;;4.90;;
39190;SDS011;24916;51.676;6.614;2022-07-21T12:40:18;6.13;;;4.38;;
39190;SDS011;24916;51.676;6.614;2022-07-21T12:42:45;6.03;;;3.65;;
39190;SDS011;24916;51.676;6.614;2022-07-21T12:45:17;5.75;;;3.90;;
39190;SDS011;24916;51.676;6.614;2022-07-21T12:47:43;5.70;;;3.97;;
39190;SDS011;24916;51.676;6.614;2022-07-21T12:50:12;5.55;;;3.42;;
39190;SDS011;24916;51.676;6.614;2022-07-21T12:52:38;5.80;;;3.70;;
39190;SDS011;24916;51.676;6.614;2022-07-21T12:55:03;5.70;;;4.07;;
39190;SDS011;24916;51.676;6.614;2022-07-21T12:57:29;7.25;;;4.40;;
39190;SDS011;24916;51.676;6.614;2022-07-21T12:59:55;7.28;;;4.22;;
39190;SDS011;24916;51.676;6.614;2022-07-21T13:02:21;5.85;;;4.10;;
39190;SDS011;24916;51.676;6.614;2022-07-21T13:04:46;5.10;;;3.95;;
39190;SDS011;24916;51.676;6.614;2022-07-21T13:07:12;5.72;;;4.07;;
39190;SDS011;24916;51.676;6.614;2022-07-21T13:09:37;6.70;;;4.70;;
39190;SDS011;24916;51.676;6.614;2022-07-21T13:12:02;7.95;;;4.93;;
39190;SDS011;24916;51.676;6.614;2022-07-21T13:14:28;6.75;;;5.22;;
39190;SDS011;24916;51.676;6.614;2022-07-21T13:16:53;8.57;;;5.03;;
39190;SDS011;24916;51.676;6.614;2022-07-21T13:19:21;7.53;;;5.70;;
39190;SDS011;24916;51.676;6.614;2022-07-21T13:21:47;8.85;;;6.20;;
39190;SDS011;24916;51.676;6.614;2022-07-21T13:24:12;6.80;;;5.67;;
39190;SDS011;24916;51.676;6.614;2022-07-21T13:26:37;10.77;;;6.03;;
39190;SDS011;24916;51.676;6.614;2022-07-21T13:29:02;30.70;;;17.30;;
39190;SDS011;24916;51.676;6.614;2022-07-21T13:31:30;27.77;;;18.38;;
39190;SDS011;24916;51.676;6.614;2022-07-21T13:33:55;12.48;;;8.35;;
39190;SDS011;24916;51.676;6.614;2022-07-21T13:36:22;9.90;;;6.93;;
39190;SDS011;24916;51.676;6.614;2022-07-21T13:38:47;7.80;;;6.75;;
39190;SDS011;24916;51.676;6.614;2022-07-21T13:41:12;10.13;;;7.13;;
39190;SDS011;24916;51.676;6.614;2022-07-21T13:43:41;9.55;;;6.80;;
39190;SDS011;24916;51.676;6.614;2022-07-21T13:46:07;10.70;;;7.65;;
39190;SDS011;24916;51.676;6.614;2022-07-21T13:48:32;8.77;;;6.37;;
39190;SDS011;24916;51.676;6.614;2022-07-21T13:50:57;8.07;;;6.03;;
39190;SDS011;24916;51.676;6.614;2022-07-21T13:53:23;8.70;;;6.25;;
39190;SDS011;24916;51.676;6.614;2022-07-21T13:55:48;8.32;;;6.15;;
39190;SDS011;24916;51.676;6.614;2022-07-21T13:58:15;8.68;;;6.05;;
39190;SDS011;24916;51.676;6.614;2022-07-21T14:00:41;9.07;;;6.27;;
39190;SDS011;24916;51.676;6.614;2022-07-21T14:03:06;14.23;;;7.47;;
39190;SDS011;24916;51.676;6.614;2022-07-21T14:05:31;15.88;;;7.97;;
39190;SDS011;24916;51.676;6.614;2022-07-21T14:07:56;12.32;;;9.73;;
39190;SDS011;24916;51.676;6.614;2022-07-21T14:10:22;10.70;;;8.20;;
39190;SDS011;24916;51.676;6.614;2022-07-21T14:12:47;9.63;;;7.82;;
39190;SDS011;24916;51.676;6.614;2022-07-21T14:15:12;9.97;;;7.30;;
39190;SDS011;24916;51.676;6.614;2022-07-21T14:17:37;8.50;;;6.73;;
39190;SDS011;24916;51.676;6.614;2022-07-21T14:20:03;26.97;;;17.97;;
39190;SDS011;24916;51.676;6.614;2022-07-21T14:22:29;11.55;;;8.50;;
39190;SDS011;24916;51.676;6.614;2022-07-21T14:24:54;10.50;;;7.35;;
39190;SDS011;24916;51.676;6.614;2022-07-21T14:27:38;9.27;;;7.05;;
39190;SDS011;24916;51.676;6.614;2022-07-21T14:30:03;8.77;;;5.87;;
39190;SDS011;24916;51.676;6.614;2022-07-21T14:32:29;8.27;;;5.72;;
39190;SDS011;24916;51.676;6.614;2022-07-21T14:34:55;7.72;;;5.03;;
39190;SDS011;24916;51.676;6.614;2022-07-21T14:37:20;8.70;;;5.80;;
39190;SDS011;24916;51.676;6.614;2022-07-21T14:39:49;6.35;;;4.78;;
39190;SDS011;24916;51.676;6.614;2022-07-21T14:42:15;6.55;;;4.82;;
39190;SDS011;24916;51.676;6.614;2022-07-21T14:44:40;6.95;;;5.28;;
39190;SDS011;24916;51.676;6.614;2022-07-21T14:47:06;7.22;;;4.95;;
39190;SDS011;24916;51.676;6.614;2022-07-21T14:49:32;7.63;;;5.18;;
39190;SDS011;24916;51.676;6.614;2022-07-21T14:51:58;10.32;;;5.35;;
39190;SDS011;24916;51.676;6.614;2022-07-21T14:54:23;8.95;;;5.35;;
39190;SDS011;24916;51.676;6.614;2022-07-21T14:56:48;10.50;;;5.90;;
39190;SDS011;24916;51.676;6.614;2022-07-21T14:59:13;7.10;;;5.10;;
39190;SDS011;24916;51.676;6.614;2022-07-21T15:01:39;8.03;;;5.93;;